28MI weather

Miller-Herrold Airport
Cedar, Michigan, United States

Public forecast

Using degrees Fahrenheit for public forecast. Weather courtesy of forecast.io.

Closest aviation weather report (METAR) to Miller-Herrold Airport

Closest report is Cherry Capital Airport, 12.0 nm (22.2 km) SE. Retrieved 2019/10/21 01:53 UTC (12 minutes ago):

KTVC 210153Z 00000KT 10SM CLR 07/05 A2997 RMK AO2 SLP151 LAST T00720050

Closest aviation forecast (TAF) to Miller-Herrold Airport

Closest forecast is Cherry Capital Airport, 12.0 nm (22.2 km) SE. Retrieved 2019-10-21 00:28 UTC (2 hours ago):

TAF KTVC 202325Z 2100/2124 VRB03KT P6SM FEW200 FM211000 12007KT P6SM BKN180 WS010/14030KT FM211500 12010G25KT P6SM VCSH OVC080 FM211700 12013G32KT P6SM VCSH OVC040 FM211900 13015G37KT 6SM -SHRA OVC029 WS020/14050KT